createdAt,value
2022-10-21T00:00:38.710Z,100.00
2022-10-21T00:03:05.122Z,100.00
2022-10-21T00:05:31.546Z,100.00
2022-10-21T00:07:58.327Z,100.00
2022-10-21T00:10:24.809Z,100.00
2022-10-21T00:12:51.278Z,100.00
2022-10-21T00:15:17.711Z,100.00
2022-10-21T00:17:44.292Z,100.00
2022-10-21T00:20:12.982Z,100.00
2022-10-21T00:22:40.216Z,100.00
2022-10-21T00:25:07.323Z,100.00
2022-10-21T00:27:33.992Z,100.00
2022-10-21T00:30:00.446Z,100.00
2022-10-21T00:32:26.865Z,100.00
2022-10-21T00:34:53.360Z,100.00
2022-10-21T00:37:19.949Z,100.00
2022-10-21T00:39:46.514Z,100.00
2022-10-21T00:42:22.306Z,100.00
2022-10-21T00:45:06.591Z,100.00
2022-10-21T00:50:37.445Z,100.00
2022-10-21T00:53:09.608Z,100.00
2022-10-21T00:55:39.505Z,100.00
2022-10-21T00:58:06.176Z,100.00
2022-10-21T01:00:33.161Z,100.00
2022-10-21T01:02:59.985Z,100.00
2022-10-21T01:05:26.995Z,100.00
2022-10-21T01:07:53.548Z,100.00
2022-10-21T01:10:19.959Z,100.00
2022-10-21T01:13:07.712Z,100.00
2022-10-21T01:15:56.346Z,100.00
2022-10-21T01:18:25.359Z,100.00
2022-10-21T01:21:16.401Z,100.00
2022-10-21T01:24:10.429Z,100.00
2022-10-21T01:26:55.726Z,100.00
2022-10-21T01:29:40.966Z,100.00
2022-10-21T01:32:22.972Z,100.00
2022-10-21T01:35:08.007Z,100.00
2022-10-21T01:37:49.802Z,100.00
2022-10-21T01:40:41.540Z,100.00
2022-10-21T01:43:39.992Z,100.00
2022-10-21T01:46:18.869Z,100.00
2022-10-21T01:48:50.882Z,100.00
2022-10-21T01:51:19.071Z,100.00
2022-10-21T01:53:54.599Z,100.00
2022-10-21T01:56:22.070Z,100.00
2022-10-21T01:58:49.673Z,100.00
2022-10-21T02:01:17.839Z,100.00
2022-10-21T02:03:49.174Z,100.00
2022-10-21T02:06:15.609Z,100.00
2022-10-21T02:08:42.823Z,100.00
2022-10-21T02:11:11.698Z,100.00
2022-10-21T02:13:48.812Z,100.00
2022-10-21T02:16:18.362Z,100.00
2022-10-21T02:18:44.762Z,100.00
2022-10-21T02:21:19.511Z,100.00
2022-10-21T02:23:52.496Z,100.00
2022-10-21T02:26:20.441Z,100.00
2022-10-21T02:28:47.678Z,100.00
2022-10-21T02:31:22.737Z,100.00
2022-10-21T02:34:17.864Z,100.00
2022-10-21T02:37:16.474Z,100.00
2022-10-21T02:39:58.921Z,100.00
2022-10-21T02:42:34.998Z,100.00
2022-10-21T02:45:02.491Z,100.00
2022-10-21T02:47:29.684Z,100.00
2022-10-21T02:49:56.103Z,100.00
2022-10-21T02:52:22.525Z,100.00
2022-10-21T02:54:48.874Z,100.00
2022-10-21T02:57:15.280Z,100.00
2022-10-21T02:59:41.659Z,100.00
2022-10-21T03:02:08.036Z,100.00
2022-10-21T03:04:34.466Z,100.00
2022-10-21T03:07:00.863Z,100.00
2022-10-21T03:09:27.229Z,100.00
2022-10-21T03:11:53.589Z,100.00
2022-10-21T03:14:19.954Z,100.00
2022-10-21T03:16:46.335Z,100.00
2022-10-21T03:19:12.746Z,100.00
2022-10-21T03:21:39.180Z,100.00
2022-10-21T03:24:11.003Z,100.00
2022-10-21T03:26:51.707Z,100.00
2022-10-21T03:29:18.064Z,100.00
2022-10-21T03:31:44.425Z,100.00
2022-10-21T03:34:10.808Z,100.00
2022-10-21T03:36:37.213Z,100.00
2022-10-21T03:39:03.737Z,100.00
2022-10-21T03:41:30.129Z,100.00
2022-10-21T03:43:56.505Z,100.00
2022-10-21T03:46:22.931Z,100.00
2022-10-21T03:48:49.320Z,100.00
2022-10-21T03:51:15.705Z,100.00
2022-10-21T03:53:43.560Z,100.00
2022-10-21T03:56:10.716Z,100.00
2022-10-21T03:58:37.116Z,100.00
2022-10-21T04:01:03.700Z,100.00
2022-10-21T04:03:30.416Z,100.00
2022-10-21T04:05:56.799Z,100.00
2022-10-21T04:08:23.205Z,100.00
2022-10-21T04:10:49.611Z,100.00
2022-10-21T04:13:16.121Z,100.00
2022-10-21T04:15:42.581Z,100.00
2022-10-21T04:18:08.941Z,100.00
2022-10-21T04:20:35.346Z,100.00
2022-10-21T04:23:02.084Z,100.00
2022-10-21T04:25:28.455Z,100.00
2022-10-21T04:27:54.818Z,100.00
2022-10-21T04:30:21.751Z,100.00
2022-10-21T04:32:48.295Z,100.00
2022-10-21T04:35:14.739Z,100.00
2022-10-21T04:37:41.157Z,100.00
2022-10-21T04:40:08.422Z,100.00
2022-10-21T04:42:34.869Z,100.00
2022-10-21T04:45:01.558Z,100.00
2022-10-21T04:47:27.949Z,100.00
2022-10-21T04:49:54.436Z,100.00
2022-10-21T04:52:20.806Z,100.00
2022-10-21T04:54:47.157Z,100.00
2022-10-21T04:57:14.055Z,100.00
2022-10-21T04:59:40.429Z,100.00
2022-10-21T05:02:06.794Z,100.00
2022-10-21T05:04:33.222Z,100.00
2022-10-21T05:06:59.576Z,100.00
2022-10-21T05:09:25.963Z,100.00
2022-10-21T05:11:52.358Z,100.00
2022-10-21T05:14:21.775Z,100.00
2022-10-21T05:16:49.512Z,100.00
2022-10-21T05:19:15.903Z,100.00
2022-10-21T05:21:42.290Z,100.00
2022-10-21T05:24:08.849Z,100.00
2022-10-21T05:26:35.220Z,100.00
2022-10-21T05:29:01.599Z,100.00
2022-10-21T05:31:28.047Z,100.00
2022-10-21T05:33:54.436Z,100.00
2022-10-21T05:36:23.887Z,100.00
2022-10-21T05:38:50.627Z,100.00
2022-10-21T05:41:17.100Z,100.00
2022-10-21T05:43:43.558Z,100.00
2022-10-21T05:46:10.126Z,100.00
2022-10-21T05:48:37.647Z,100.00
2022-10-21T05:51:05.160Z,100.00
2022-10-21T05:53:31.618Z,100.00
2022-10-21T05:56:04.300Z,100.00
2022-10-21T05:58:32.509Z,100.00
2022-10-21T06:00:59.382Z,100.00
2022-10-21T06:03:30.017Z,100.00
2022-10-21T06:06:01.600Z,100.00
2022-10-21T06:08:29.470Z,100.00
2022-10-21T06:11:08.312Z,100.00
2022-10-21T06:13:35.554Z,100.00
2022-10-21T06:16:02.722Z,100.00
2022-10-21T06:18:29.336Z,100.00
2022-10-21T06:20:55.824Z,100.00
2022-10-21T06:23:22.307Z,100.00
2022-10-21T06:26:15.522Z,100.00
2022-10-21T06:28:43.457Z,100.00
2022-10-21T06:31:13.692Z,100.00
2022-10-21T06:33:40.420Z,100.00
2022-10-21T06:36:07.182Z,100.00
2022-10-21T06:38:33.737Z,100.00
2022-10-21T06:41:09.172Z,100.00
2022-10-21T06:43:39.070Z,100.00
2022-10-21T06:46:07.766Z,100.00
2022-10-21T06:48:34.591Z,100.00
2022-10-21T06:51:07.109Z,100.00
2022-10-21T06:53:36.601Z,100.00
2022-10-21T06:56:09.657Z,100.00
2022-10-21T06:58:37.680Z,100.00
2022-10-21T07:01:21.489Z,100.00
2022-10-21T07:03:57.993Z,100.00
2022-10-21T07:06:24.915Z,100.00
2022-10-21T07:08:58.255Z,100.00
2022-10-21T07:11:25.954Z,100.00
2022-10-21T07:13:52.379Z,100.00
2022-10-21T07:16:25.126Z,100.00
2022-10-21T07:18:52.135Z,100.00
2022-10-21T07:21:20.483Z,100.00
2022-10-21T07:23:49.135Z,100.00
2022-10-21T07:26:15.739Z,100.00
2022-10-21T07:28:46.688Z,100.00
2022-10-21T07:31:22.232Z,100.00
2022-10-21T07:33:48.980Z,100.00
2022-10-21T07:36:24.390Z,100.00
2022-10-21T07:38:52.286Z,100.00
2022-10-21T07:41:22.093Z,100.00
2022-10-21T07:43:49.038Z,100.00
2022-10-21T07:46:16.562Z,100.00
2022-10-21T07:48:43.149Z,100.00
2022-10-21T07:51:12.812Z,100.00
2022-10-21T07:53:39.870Z,100.00
2022-10-21T07:56:18.393Z,100.00
2022-10-21T07:58:46.873Z,100.00
2022-10-21T08:01:15.447Z,100.00
2022-10-21T08:03:42.624Z,100.00
2022-10-21T08:06:11.548Z,100.00
2022-10-21T08:08:39.345Z,100.00
2022-10-21T08:11:06.645Z,100.00
2022-10-21T08:13:34.433Z,100.00
2022-10-21T08:16:01.990Z,100.00
2022-10-21T08:18:29.519Z,100.00
2022-10-21T08:20:55.963Z,100.00
2022-10-21T08:23:23.973Z,100.00
2022-10-21T08:25:52.990Z,100.00
2022-10-21T08:28:20.357Z,100.00
2022-10-21T08:30:46.809Z,100.00
2022-10-21T08:33:14.101Z,100.00
2022-10-21T08:35:42.071Z,100.00
2022-10-21T08:38:08.574Z,100.00
2022-10-21T08:40:38.370Z,100.00
2022-10-21T08:43:19.853Z,100.00
2022-10-21T08:45:54.701Z,100.00
2022-10-21T08:48:26.114Z,100.00
2022-10-21T08:50:56.190Z,100.00
2022-10-21T08:53:39.081Z,100.00
2022-10-21T08:56:13.476Z,100.00
2022-10-21T08:58:46.788Z,100.00
2022-10-21T09:01:29.289Z,100.00
2022-10-21T09:04:10.271Z,100.00
2022-10-21T09:07:06.014Z,100.00
2022-10-21T09:09:51.793Z,100.00
2022-10-21T09:12:41.330Z,100.00
2022-10-21T09:15:35.921Z,100.00
2022-10-21T09:18:37.016Z,100.00
2022-10-21T09:21:23.294Z,100.00
2022-10-21T09:24:12.847Z,100.00
2022-10-21T09:26:47.164Z,100.00
2022-10-21T09:29:16.251Z,100.00
2022-10-21T09:31:43.892Z,100.00
2022-10-21T09:34:52.015Z,100.00
2022-10-21T09:37:34.743Z,100.00
2022-10-21T09:40:24.081Z,100.00
2022-10-21T09:42:53.031Z,100.00
2022-10-21T09:45:26.653Z,100.00
2022-10-21T09:48:03.504Z,100.00
2022-10-21T09:53:14.508Z,100.00
2022-10-21T09:55:41.492Z,100.00
2022-10-21T09:58:07.926Z,99.36
2022-10-21T10:00:49.997Z,99.09
2022-10-21T10:03:43.701Z,99.08
2022-10-21T10:06:10.206Z,97.88
2022-10-21T10:08:47.508Z,95.56
2022-10-21T10:11:17.521Z,94.66
2022-10-21T10:13:45.515Z,94.52
2022-10-21T10:16:22.872Z,94.29
2022-10-21T10:18:51.825Z,93.84
2022-10-21T10:21:20.783Z,92.92
2022-10-21T10:23:56.042Z,92.38
2022-10-21T10:26:25.946Z,92.32
2022-10-21T10:28:56.644Z,91.82
2022-10-21T10:31:30.433Z,92.01
2022-10-21T10:34:00.837Z,91.64
2022-10-21T10:36:34.778Z,90.00
2022-10-21T10:39:03.828Z,89.92
2022-10-21T10:41:37.143Z,88.70
2022-10-21T10:44:10.749Z,87.72
2022-10-21T10:46:38.751Z,87.48
2022-10-21T10:49:19.034Z,87.45
2022-10-21T10:51:46.878Z,86.73
2022-10-21T10:54:40.476Z,86.26
2022-10-21T10:57:20.108Z,85.00
2022-10-21T11:00:01.457Z,83.74
2022-10-21T11:02:36.897Z,83.98
2022-10-21T11:05:08.910Z,83.75
2022-10-21T11:07:44.440Z,84.07
2022-10-21T11:10:19.716Z,84.40
2022-10-21T11:12:46.095Z,84.35
2022-10-21T11:15:15.013Z,84.46
2022-10-21T11:17:50.973Z,84.52
2022-10-21T11:20:30.321Z,84.94
2022-10-21T11:23:15.649Z,85.12
2022-10-21T11:26:02.993Z,85.15
2022-10-21T11:28:44.290Z,84.87
2022-10-21T11:31:21.561Z,84.61
2022-10-21T11:34:13.514Z,85.00
2022-10-21T11:37:00.864Z,84.77
2022-10-21T11:39:54.576Z,85.35
2022-10-21T11:42:37.962Z,86.12
2022-10-21T11:45:28.709Z,86.02
2022-10-21T11:47:58.092Z,85.84
2022-10-21T11:50:49.096Z,86.04
2022-10-21T11:53:40.957Z,86.45
2022-10-21T11:56:27.575Z,86.52
2022-10-21T11:59:07.498Z,86.71
2022-10-21T12:01:51.080Z,86.88
2022-10-21T12:04:53.954Z,86.82
2022-10-21T12:07:56.363Z,86.54
2022-10-21T12:10:30.292Z,86.28
2022-10-21T12:13:02.347Z,86.10
2022-10-21T12:15:36.458Z,85.14
2022-10-21T12:18:04.972Z,84.57
2022-10-21T12:20:32.507Z,84.09
2022-10-21T12:23:03.472Z,83.47
2022-10-21T12:25:42.462Z,83.21
2022-10-21T12:28:18.496Z,82.67
2022-10-21T12:30:55.399Z,82.84
2022-10-21T12:33:37.176Z,81.63
2022-10-21T12:36:22.514Z,81.76
2022-10-21T12:38:52.183Z,81.93
2022-10-21T12:41:24.581Z,82.42
2022-10-21T12:44:03.220Z,81.74
2022-10-21T12:46:51.807Z,81.97
2022-10-21T12:49:22.488Z,82.22
2022-10-21T12:52:21.190Z,82.33
2022-10-21T12:55:02.682Z,82.71
2022-10-21T12:57:33.256Z,82.97
2022-10-21T13:00:27.991Z,83.17
2022-10-21T13:03:20.155Z,83.39
2022-10-21T13:05:46.501Z,82.82
2022-10-21T13:08:29.193Z,83.08
2022-10-21T13:11:04.753Z,82.48
2022-10-21T13:13:44.997Z,81.70
2022-10-21T13:16:20.698Z,81.24
2022-10-21T13:19:00.758Z,81.25
2022-10-21T13:21:29.851Z,81.00
2022-10-21T13:24:05.606Z,80.68
2022-10-21T13:26:32.590Z,80.27
2022-10-21T13:29:17.688Z,79.22
2022-10-21T13:31:44.185Z,78.92
2022-10-21T13:34:29.154Z,78.25
2022-10-21T13:36:56.688Z,77.69
2022-10-21T13:39:31.270Z,78.00
2022-10-21T13:42:07.769Z,77.90
2022-10-21T13:44:37.984Z,77.39
2022-10-21T13:47:30.960Z,76.60
2022-10-21T13:50:05.401Z,76.62
2022-10-21T13:52:32.058Z,77.04
2022-10-21T13:54:59.921Z,76.75
2022-10-21T13:57:34.216Z,76.00
2022-10-21T14:00:07.217Z,76.15
2022-10-21T14:02:33.889Z,76.10
2022-10-21T14:05:00.875Z,76.49
2022-10-21T14:07:27.988Z,76.27
2022-10-21T14:09:57.586Z,76.38
2022-10-21T14:12:41.630Z,76.33
2022-10-21T14:15:18.100Z,76.08
2022-10-21T14:17:51.966Z,76.31
2022-10-21T14:20:27.862Z,76.52
2022-10-21T14:22:55.177Z,76.40
2022-10-21T14:25:21.919Z,77.21
2022-10-21T14:27:49.529Z,77.13
2022-10-21T14:30:28.306Z,77.00
2022-10-21T14:32:58.172Z,77.38
2022-10-21T14:35:28.086Z,77.44
2022-10-21T14:37:59.923Z,77.15
2022-10-21T14:40:40.754Z,77.01
2022-10-21T14:43:20.328Z,77.06
2022-10-21T14:45:49.419Z,76.94
2022-10-21T14:48:28.713Z,77.10
2022-10-21T14:51:01.782Z,76.93
2022-10-21T14:53:34.621Z,76.79
2022-10-21T14:56:04.269Z,77.27
2022-10-21T14:58:36.575Z,77.22
2022-10-21T15:01:14.119Z,77.31
2022-10-21T15:03:49.353Z,77.42
2022-10-21T15:06:23.674Z,77.83
2022-10-21T15:08:56.514Z,77.68
2022-10-21T15:11:25.847Z,78.06
2022-10-21T15:14:04.393Z,78.10
2022-10-21T15:16:31.876Z,78.28
2022-10-21T15:19:05.540Z,77.95
2022-10-21T15:21:45.113Z,78.15
2022-10-21T15:24:20.159Z,78.22
2022-10-21T15:26:49.702Z,78.51
2022-10-21T15:29:27.323Z,78.53
2022-10-21T15:31:56.661Z,78.92
2022-10-21T15:34:23.173Z,79.06
2022-10-21T15:36:49.579Z,79.63
2022-10-21T15:39:16.056Z,80.31
2022-10-21T15:41:42.668Z,81.34
2022-10-21T15:44:21.078Z,82.28
2022-10-21T15:46:50.238Z,83.72
2022-10-21T15:49:22.416Z,85.25
2022-10-21T15:51:50.174Z,86.69
2022-10-21T15:54:18.283Z,87.38
2022-10-21T15:56:47.253Z,88.34
2022-10-21T15:59:22.362Z,88.81
2022-10-21T16:01:50.092Z,89.22
2022-10-21T16:04:17.213Z,89.78
2022-10-21T16:06:48.244Z,90.22
2022-10-21T16:09:20.557Z,90.99
2022-10-21T16:12:01.437Z,91.37
2022-10-21T16:14:30.104Z,91.76
2022-10-21T16:17:00.858Z,92.29
2022-10-21T16:19:28.521Z,92.66
2022-10-21T16:21:56.052Z,92.82
2022-10-21T16:24:22.469Z,92.94
2022-10-21T16:26:49.794Z,93.01
2022-10-21T16:29:19.899Z,93.33
2022-10-21T16:31:46.845Z,93.50
2022-10-21T16:34:13.270Z,93.65
2022-10-21T16:36:39.794Z,93.51
2022-10-21T16:39:25.214Z,93.41
2022-10-21T16:41:51.920Z,93.45
2022-10-21T16:44:18.743Z,93.70
2022-10-21T16:46:55.457Z,93.65
2022-10-21T16:49:27.808Z,93.45
2022-10-21T16:51:55.063Z,93.55
2022-10-21T16:54:22.969Z,93.47
2022-10-21T16:56:52.129Z,93.24
2022-10-21T16:59:21.266Z,93.26
2022-10-21T17:01:47.628Z,93.10
2022-10-21T17:04:14.422Z,93.03
2022-10-21T17:06:41.126Z,93.35
2022-10-21T17:09:07.577Z,93.20
2022-10-21T17:11:36.765Z,93.54
2022-10-21T17:14:06.202Z,93.61
2022-10-21T17:16:32.646Z,93.69
2022-10-21T17:18:59.018Z,93.47
2022-10-21T17:21:31.304Z,93.62
2022-10-21T17:23:59.516Z,93.50
2022-10-21T17:26:26.002Z,93.61
2022-10-21T17:28:53.623Z,93.78
2022-10-21T17:31:22.691Z,93.81
2022-10-21T17:33:51.039Z,93.76
2022-10-21T17:36:18.152Z,93.89
2022-10-21T17:38:44.744Z,94.07
2022-10-21T17:41:12.931Z,94.23
2022-10-21T17:43:39.422Z,93.99
2022-10-21T17:46:06.107Z,94.14
2022-10-21T17:48:33.195Z,94.39
2022-10-21T17:51:01.859Z,94.60
2022-10-21T17:53:30.320Z,94.35
2022-10-21T17:56:01.720Z,94.35
2022-10-21T17:58:28.996Z,94.23
2022-10-21T18:00:58.989Z,94.35
2022-10-21T18:03:27.562Z,94.12
2022-10-21T18:05:55.983Z,93.96
2022-10-21T18:08:23.731Z,94.05
2022-10-21T18:10:58.202Z,93.29
2022-10-21T18:13:27.125Z,93.31
2022-10-21T18:15:55.792Z,93.26
2022-10-21T18:18:23.195Z,92.74
2022-10-21T18:20:50.450Z,92.77
2022-10-21T18:23:17.454Z,92.71
2022-10-21T18:25:43.981Z,92.54
2022-10-21T18:28:10.492Z,92.56
2022-10-21T18:30:42.756Z,92.43
2022-10-21T18:33:09.515Z,92.39
2022-10-21T18:35:36.195Z,91.99
2022-10-21T18:38:02.659Z,92.50
2022-10-21T18:40:29.467Z,92.28
2022-10-21T18:42:56.003Z,92.65
2022-10-21T18:45:22.698Z,92.69
2022-10-21T18:47:51.122Z,93.17
2022-10-21T18:50:17.642Z,93.70
2022-10-21T18:52:44.028Z,94.17
2022-10-21T18:55:10.406Z,94.44
2022-10-21T18:57:36.966Z,94.66
2022-10-21T19:00:04.966Z,95.10
2022-10-21T19:02:31.333Z,95.45
2022-10-21T19:04:59.745Z,95.63
2022-10-21T19:07:28.641Z,95.85
2022-10-21T19:09:55.002Z,96.12
2022-10-21T19:12:23.545Z,96.28
2022-10-21T19:14:50.352Z,96.21
2022-10-21T19:17:16.926Z,96.41
2022-10-21T19:19:43.345Z,96.60
2022-10-21T19:22:09.805Z,96.75
2022-10-21T19:24:36.198Z,96.92
2022-10-21T19:27:02.608Z,96.96
2022-10-21T19:29:29.134Z,97.10
2022-10-21T19:31:56.810Z,97.13
2022-10-21T19:34:26.669Z,96.82
2022-10-21T19:36:53.053Z,96.99
2022-10-21T19:39:19.955Z,96.78
2022-10-21T19:41:46.539Z,96.68
2022-10-21T19:44:13.441Z,96.54
2022-10-21T19:46:40.019Z,96.03
2022-10-21T19:49:08.616Z,95.60
2022-10-21T19:51:36.570Z,95.35
2022-10-21T19:54:05.189Z,94.64
2022-10-21T19:56:34.030Z,94.32
2022-10-21T19:59:02.728Z,94.17
2022-10-21T20:01:30.184Z,93.98
2022-10-21T20:03:56.775Z,93.55
2022-10-21T20:06:24.703Z,93.62
2022-10-21T20:08:53.585Z,93.03
2022-10-21T20:11:21.725Z,93.05
2022-10-21T20:13:50.152Z,92.95
2022-10-21T20:16:22.609Z,92.82
2022-10-21T20:18:49.551Z,92.87
2022-10-21T20:21:16.228Z,92.92
2022-10-21T20:23:42.689Z,92.90
2022-10-21T20:26:09.327Z,92.62
2022-10-21T20:28:36.230Z,92.93
2022-10-21T20:31:06.443Z,92.58
2022-10-21T20:33:35.391Z,92.86
2022-10-21T20:36:07.352Z,92.45
2022-10-21T20:38:34.002Z,92.27
2022-10-21T20:41:02.949Z,92.22
2022-10-21T20:43:29.822Z,92.05
2022-10-21T20:45:56.183Z,92.05
2022-10-21T20:48:22.585Z,92.02
2022-10-21T20:50:48.957Z,91.93
2022-10-21T20:53:15.308Z,91.93
2022-10-21T20:55:42.781Z,91.95
2022-10-21T20:58:09.150Z,91.95
2022-10-21T21:00:37.211Z,91.83
2022-10-21T21:03:03.713Z,91.69
2022-10-21T21:05:30.067Z,91.53
2022-10-21T21:07:56.421Z,91.50
2022-10-21T21:10:22.849Z,91.25
2022-10-21T21:12:49.250Z,91.08
2022-10-21T21:15:15.693Z,91.06
2022-10-21T21:17:42.030Z,90.91
2022-10-21T21:20:09.018Z,90.95
2022-10-21T21:22:36.939Z,91.00
2022-10-21T21:25:04.198Z,91.24
2022-10-21T21:27:30.579Z,91.18
2022-10-21T21:29:57.011Z,91.33
2022-10-21T21:32:23.438Z,91.61
2022-10-21T21:34:54.895Z,91.53
2022-10-21T21:37:22.783Z,92.07
2022-10-21T21:39:49.254Z,92.10
2022-10-21T21:42:15.823Z,92.17
2022-10-21T21:44:42.194Z,92.51
2022-10-21T21:47:08.630Z,92.48
2022-10-21T21:49:35.016Z,92.65
2022-10-21T21:52:01.409Z,92.92
2022-10-21T21:54:27.762Z,93.13
2022-10-21T21:57:00.635Z,93.39
2022-10-21T21:59:40.483Z,93.63
2022-10-21T22:02:06.843Z,93.72
2022-10-21T22:04:34.154Z,94.24
2022-10-21T22:07:02.861Z,94.35
2022-10-21T22:09:29.529Z,94.42
2022-10-21T22:11:55.885Z,95.04
2022-10-21T22:14:22.224Z,95.07
2022-10-21T22:16:48.600Z,95.32
2022-10-21T22:19:14.952Z,95.47
2022-10-21T22:21:41.298Z,95.63
2022-10-21T22:24:07.647Z,95.68
2022-10-21T22:26:34.027Z,96.01
2022-10-21T22:29:00.381Z,96.33
2022-10-21T22:31:29.512Z,96.42
2022-10-21T22:33:58.225Z,96.58
2022-10-21T22:36:24.609Z,97.10
2022-10-21T22:38:50.945Z,96.98
2022-10-21T22:41:17.311Z,97.15
2022-10-21T22:43:43.798Z,97.41
2022-10-21T22:46:22.220Z,97.78
2022-10-21T22:48:56.946Z,97.47
2022-10-21T22:51:23.444Z,98.17
2022-10-21T22:53:55.174Z,98.39
2022-10-21T22:56:24.556Z,98.54
2022-10-21T22:58:50.990Z,98.83
2022-10-21T23:01:20.956Z,98.87
2022-10-21T23:03:47.369Z,99.04
2022-10-21T23:06:13.892Z,99.10
2022-10-21T23:08:40.348Z,99.38
2022-10-21T23:11:06.722Z,99.13
2022-10-21T23:13:33.307Z,99.54
2022-10-21T23:15:59.676Z,99.85
2022-10-21T23:18:26.193Z,99.69
2022-10-21T23:20:53.798Z,99.51
2022-10-21T23:23:20.281Z,100.00
2022-10-21T23:25:46.642Z,100.00
2022-10-21T23:28:13.607Z,100.00
2022-10-21T23:30:40.640Z,100.00
2022-10-21T23:33:06.994Z,100.00
2022-10-21T23:35:33.349Z,100.00
2022-10-21T23:37:59.772Z,100.00
2022-10-21T23:40:26.812Z,99.81
2022-10-21T23:42:53.619Z,99.67
2022-10-21T23:45:20.098Z,98.72
2022-10-21T23:47:46.629Z,98.43
2022-10-21T23:50:13.475Z,98.25
2022-10-21T23:52:39.935Z,97.35
2022-10-21T23:55:07.650Z,97.33
2022-10-21T23:57:34.253Z,97.59
